Weather reports worldwide

Advertisment
Besancon, France (7288): temperature & dewpoint: 27.06.2020 22:00:00 - 03.07.2020 22:00:00 (CEST)Besancon, France (7288): temperature 5cm: 27.06.2020 22:00:00 - 03.07.2020 22:00:00 (CEST)Besancon, France (7288): temperature -20cm & temperature -100cm: 27.06.2020 22:00:00 - 03.07.2020 22:00:00 (CEST)Besancon, France (7288): wind speed & gusts: 27.06.2020 22:00:00 - 03.07.2020 22:00:00 (CEST)Besancon, France (7288): wind direction: 27.06.2020 22:00:00 - 03.07.2020 22:00:00 (CEST)Besancon, France (7288): reduced air pressure: 27.06.2020 22:00:00 - 03.07.2020 22:00:00 (CEST)Besancon, France (7288): sunshine duration: 27.06.2020 22:00:00 - 03.07.2020 22:00:00 (CEST)Besancon, France (7288): precipitation: 27.06.2020 22:00:00 - 03.07.2020 22:00:00 (CEST)
Date & Time tt [°C] td [°C] tt 5cm [°C] tt -20cm [°C] tt -100cm [°C] ff [km/h] ff [kn] fx [km/h] fx [kn] dd ppp [hPa] sd [min] rr [mm]
03.07.2020 22:00:00 18,7 11,0 15,3 20,9 17,7 0 0 10 6 N 1020,2 7 0,0
03.07.2020 21:00:00 20,5 10,6 17,0 20,9 17,6 6 4 13 7 N 1019,4 38 0,0
03.07.2020 20:00:00 20,1 10,8 17,3 20,9 17,6 4 2 10 5 NW 1019,2 0 0,0
03.07.2020 19:00:00 20,4 10,5 19,0 20,8 17,6 7 4 19 10 N 1019,2 39 0,0
03.07.2020 18:00:00 23,2 10,9 27,0 20,8 17,6 5 3 18 10 WNW 1018,8 56 0,0
03.07.2020 17:00:00 22,2 11,3 23,0 20,7 17,6 9 5 19 10 N 1019,0 11 0,0
03.07.2020 16:00:00 20,9 10,4 22,4 20,6 17,6 9 5 26 14 NW 1019,3 7 0,0
03.07.2020 15:00:00 23,0 11,4 29,0 20,5 17,6 6 4 20 11 N 1019,0 52 0,0
03.07.2020 14:00:00 22,3 11,1 24,5 20,5 17,6 5 3 14 8 NNE 1019,6 18 0,0
03.07.2020 13:00:00 20,2 10,9 22,4 20,5 17,6 6 3 16 8 NNW 1020,0 0 0,0
03.07.2020 12:00:00 20,0 10,4 25,3 20,5 17,6 8 4 21 11 N 1020,1 25 0,0
03.07.2020 11:00:00 20,1 11,0 23,2 20,5 17,6 6 3 19 11 NNE 1019,9 41 0,0
03.07.2020 10:00:00 19,8 11,0 21,7 20,6 17,6 4 2 10 6 NE 1019,7 57 0,0
03.07.2020 09:00:00 18,3 11,4 12,8 20,6 17,5 3 2 9 5 N 1020,0 60 0,0
03.07.2020 08:00:00 15,3 10,7 12,3 20,8 17,6 4 2 9 5 NW 1020,3 51 0,0
03.07.2020 07:00:00 14,4 10,6 12,9 20,8 17,5 0 0 7 4 N 1020,1 5 0,0
03.07.2020 06:00:00 14,6 10,4 12,9 20,9 17,6 0 0 4 2 N 1019,6 0 0,0
03.07.2020 05:00:00 15,2 10,6 13,4 21,0 17,6 2 1 7 4 SW 1019,3 0 0,0
03.07.2020 04:00:00 16,0 10,1 13,4 21,1 17,5 3 2 14 7 N 1019,2 0 0,0
03.07.2020 03:00:00 16,8 10,2 14,7 21,2 17,6 6 3 17 9 WNW 1019,1 0 0,0
03.07.2020 02:00:00 17,3 10,7 15,1 21,2 17,5 3 2 8 5 NW 1018,9 0 0,0
03.07.2020 01:00:00 17,9 11,0 15,5 21,3 17,6 4 2 8 5 W 1018,3 0 0,0
03.07.2020 00:00:00 18,4 10,5 15,8 21,3 17,5 5 3 12 7 WNW 1017,9 0 0,0
02.07.2020 23:00:00 18,9 11,0 16,2 21,3 17,5 3 2 8 4 WSW 1017,4 0 0,0
02.07.2020 22:00:00 19,5 10,5 16,5 21,4 17,5 4 2 12 6 WNW 1016,6 0 0,0
02.07.2020 21:00:00 20,2 9,7 17,1 21,4 17,5 5 3 19 11 WNW 1016,1 0 0,0
02.07.2020 20:00:00 21,0 11,6 18,1 21,3 17,5 5 3 16 9 W 1015,6 0 0,0
02.07.2020 19:00:00 21,9 11,3 20,9 21,3 17,5 8 5 25 14 WSW 1014,8 11 0,0
02.07.2020 18:00:00 22,7 11,7 24,2 21,2 17,5 12 6 32 18 WSW 1014,3 36 0,0
02.07.2020 17:00:00 22,9 13,4 23,6 21,2 17,5 10 5 29 15 WSW 1014,4 3 0,0
02.07.2020 16:00:00 22,5 13,3 25,2 21,2 17,5 13 7 30 16 SSW 1014,4 12 0,0
02.07.2020 15:00:00 22,3 13,6 25,0 21,1 17,5 11 6 29 16 SSW 1014,6 25 0,0
02.07.2020 14:00:00 21,5 13,4 26,1 21,1 17,5 13 7 28 15 SSW 1014,9 14 0,0
02.07.2020 13:00:00 21,1 13,5 21,2 21,1 17,5 10 6 25 14 SW 1015,0 8 0,0
02.07.2020 12:00:00 19,1 15,0 18,1 21,2 17,5 8 4 17 9 SW 1015,3 0 0,0
02.07.2020 11:00:00 17,8 14,5 17,9 21,2 17,5 7 4 21 12 WSW 1015,3 0 0,0
02.07.2020 10:00:00 17,8 15,8 18,3 21,2 17,5 7 4 17 9 W 1015,0 0 0,0
02.07.2020 09:00:00 19,1 16,3 18,4 21,3 17,5 8 4 16 8 SW 1014,4 0 0,0
02.07.2020 08:00:00 19,1 16,3 18,1 21,3 17,5 7 4 16 9 SSW 1013,9 0 0,0
02.07.2020 07:00:00 19,3 16,5 18,0 21,4 17,5 6 3 17 9 SW 1013,7 0 0,0
02.07.2020 06:00:00 19,5 16,7 17,8 21,4 17,5 9 5 21 11 SW 1013,3 0 0,0
02.07.2020 05:00:00 19,7 16,5 18,0 21,5 17,5 8 5 21 11 SW 1013,1 0 0,0
02.07.2020 04:00:00 20,3 16,1 17,9 21,5 17,5 8 4 21 11 SSW 1012,9 0 0,0
02.07.2020 03:00:00 20,4 16,0 18,1 21,6 17,5 5 3 11 6 SSW 1012,9 0 0,0
02.07.2020 02:00:00 20,4 16,2 18,1 21,6 17,4 0 0 12 6 N 1012,8 0 0,2
02.07.2020 01:00:00 20,9 15,9 17,2 21,6 17,5 3 2 11 6 SW 1012,8 0 0,0
02.07.2020 00:00:00 21,7 15,8 17,9 21,6 17,4 5 3 18 10 SSW 1012,3 0 0,0
01.07.2020 23:00:00 22,0 15,1 18,1 21,6 17,4 6 3 27 15 SSW 1012,4 0 0,0
01.07.2020 22:00:00 23,4 15,7 20,1 21,6 17,4 16 9 35 19 SSW 1011,5 8 0,0
01.07.2020 21:00:00 24,6 16,1 21,8 21,5 17,4 9 5 21 11 SW 1010,6 31 0,0
01.07.2020 20:00:00 25,2 16,9 22,0 21,4 17,4 10 5 26 14 W 1010,2 2 0,0
01.07.2020 19:00:00 27,2 16,8 25,8 21,3 17,4 13 7 36 20 SW 1009,4 45 0,0
01.07.2020 18:00:00 28,0 16,9 30,7 21,2 17,5 14 8 30 16 SW 1009,3 60 0,0
01.07.2020 17:00:00 27,8 18,2 30,3 21,0 17,4 12 6 27 15 SW 1009,5 58 0,0
01.07.2020 16:00:00 26,9 17,7 27,9 20,8 17,5 11 6 23 13 SW 1009,6 8 0,0
01.07.2020 15:00:00 27,0 17,5 29,8 20,7 17,4 8 5 26 14 SW 1009,5 22 0,0
01.07.2020 14:00:00 27,6 16,6 32,2 20,5 17,4 9 5 26 14 SSW 1009,9 49 0,0
01.07.2020 13:00:00 26,7 15,7 37,0 20,4 17,4 12 6 27 15 SW 1010,1 60 0,0
01.07.2020 12:00:00 25,7 16,3 31,8 20,4 17,4 7 4 22 12 WSW 1010,4 60 0,0
01.07.2020 11:00:00 24,5 16,2 28,1 20,4 17,4 5 3 16 8 W 1010,8 60 0,0
01.07.2020 10:00:00 23,4 16,0 24,6 20,5 17,4 5 3 10 5 W 1011,1 60 0,0
01.07.2020 09:00:00 21,3 14,5 15,4 20,5 17,4 2 1 5 3 SW 1011,4 60 0,0
01.07.2020 08:00:00 16,8 14,3 13,3 20,6 17,4 0 0 4 2 N 1011,7 60 0,0
01.07.2020 07:00:00 14,7 14,1 11,7 20,7 17,4 3 1 4 2 NNE 1012,2 13 0,0
01.07.2020 06:00:00 14,3 13,8 11,4 20,8 17,4 0 0 6 3 N 1012,1 0 0,0
01.07.2020 05:00:00 14,5 13,9 11,6 20,9 17,4 0 0 5 3 N 1012,2 0 0,0
01.07.2020 04:00:00 14,7 13,9 11,9 21,0 17,4 3 2 5 3 NNE 1012,3 0 0,0
01.07.2020 03:00:00 15,1 14,1 12,1 21,0 17,4 0 0 5 3 N 1012,7 0 0,0
01.07.2020 02:00:00 15,9 14,4 12,6 21,1 17,4 0 0 3 2 N 1013,0 0 0,0
01.07.2020 01:00:00 16,6 14,4 13,0 21,2 17,4 0 0 4 2 N 1013,0 0 0,0
01.07.2020 00:00:00 17,4 14,7 13,5 21,2 17,4 2 1 4 2 NNE 1013,1 0 0,0
30.06.2020 23:00:00 19,0 14,5 14,4 21,2 17,4 0 0 4 2 N 1012,9 0 0,0
30.06.2020 22:00:00 20,8 14,4 15,8 21,1 17,4 0 0 9 5 N 1012,4 6 0,0
30.06.2020 21:00:00 23,5 14,2 19,7 21,0 17,4 6 3 16 9 SW 1011,8 37 0,0
30.06.2020 20:00:00 24,5 14,9 23,1 20,9 17,4 8 4 21 12 SW 1011,8 53 0,0
30.06.2020 19:00:00 24,7 14,8 26,4 20,8 17,4 10 5 25 14 SW 1012,1 60 0,0
30.06.2020 18:00:00 24,8 14,3 30,1 20,7 17,4 9 5 24 13 WSW 1012,4 60 0,0
30.06.2020 17:00:00 24,3 14,1 31,3 20,5 17,4 11 6 26 14 SW 1012,9 60 0,0
30.06.2020 16:00:00 24,3 13,8 33,2 20,4 17,4 11 6 23 13 WSW 1013,2 60 0,0
30.06.2020 15:00:00 23,3 11,0 32,5 20,2 17,3 11 6 27 15 SW 1013,7 60 0,0
30.06.2020 14:00:00 22,6 11,6 30,9 20,1 17,3 13 7 27 14 SW 1014,1 60 0,0
30.06.2020 13:00:00 21,7 12,5 27,2 20,1 17,4 11 6 24 13 WSW 1014,6 51 0,0
30.06.2020 12:00:00 20,6 11,8 25,4 20,1 17,4 12 7 27 14 SSW 1015,1 57 0,0
30.06.2020 11:00:00 19,8 11,8 23,4 20,1 17,3 8 4 19 10 SSW 1015,3 35 0,0
30.06.2020 10:00:00 18,7 11,5 19,8 20,2 17,4 8 5 16 9 WSW 1016,0 52 0,0
30.06.2020 09:00:00 17,0 11,3 16,4 20,3 17,4 9 5 19 10 SW 1016,1 35 0,0
30.06.2020 08:00:00 15,4 11,0 13,7 20,4 17,3 0 0 6 3 N 1016,3 10 0,0
30.06.2020 07:00:00 12,5 11,1 8,7 20,5 17,3 0 0 4 2 N 1016,7 28 0,0
30.06.2020 06:00:00 11,0 10,1 8,4 20,7 17,4 0 0 4 2 N 1017,1 0 0,0
30.06.2020 05:00:00 11,7 10,3 8,7 20,8 17,3 0 0 3 2 N 1017,0 0 0,0
30.06.2020 04:00:00 12,8 10,3 9,4 20,9 17,3 0 0 6 3 N 1017,2 0 0,0
30.06.2020 03:00:00 14,2 10,0 10,4 21,0 17,3 2 1 7 4 SSW 1017,1 0 0,0
30.06.2020 02:00:00 15,9 10,2 12,9 21,0 17,3 3 2 10 5 SW 1017,1 0 0,0
30.06.2020 01:00:00 15,7 10,2 11,3 21,1 17,3 4 2 12 7 W 1016,9 0 0,0
30.06.2020 00:00:00 15,7 11,3 11,5 21,2 17,3 2 1 8 4 SSE 1016,4 0 0,0
29.06.2020 23:00:00 17,0 10,6 12,1 21,2 17,3 3 1 13 7 WSW 1016,0 0 0,0
29.06.2020 22:00:00 18,7 10,0 13,4 21,2 17,3 5 3 16 9 SW 1015,4 6 0,0
29.06.2020 21:00:00 21,3 9,8 17,0 21,2 17,3 6 3 22 12 SW 1014,8 37 0,0
29.06.2020 20:00:00 22,7 10,8 20,7 21,1 17,3 8 4 28 15 SW 1014,6 50 0,0
29.06.2020 19:00:00 22,7 12,0 20,9 21,0 17,3 10 5 30 16 SW 1014,5 36 0,0
29.06.2020 18:00:00 23,1 12,4 25,1 21,0 17,3 12 6 31 17 SW 1014,8 41 0,0
29.06.2020 17:00:00 22,8 14,1 26,5 20,9 17,3 10 6 24 13 WSW 1015,0 34 0,0
29.06.2020 16:00:00 21,9 14,5 26,5 20,8 17,3 10 6 37 20 W 1015,7 33 0,0
29.06.2020 15:00:00 20,9 15,4 21,0 20,7 17,3 16 8 34 18 W 1016,0 10 0,0
29.06.2020 14:00:00 21,6 13,0 25,4 20,7 17,3 12 7 36 20 SSW 1015,9 31 0,0
29.06.2020 13:00:00 21,3 13,0 21,7 20,7 17,2 16 9 38 20 SW 1016,2 40 0,0
29.06.2020 12:00:00 20,3 15,3 20,1 20,7 17,3 13 7 31 17 SW 1016,3 31 0,0
29.06.2020 11:00:00 18,8 16,6 18,6 20,7 17,2 9 5 26 14 SW 1016,5 14 0,0
29.06.2020 10:00:00 17,5 15,7 19,2 20,7 17,2 11 6 26 14 SW 1016,4 13 0,0
29.06.2020 09:00:00 16,6 16,0 16,8 20,8 17,2 9 5 18 10 SW 1016,3 6 0,4
29.06.2020 08:00:00 15,7 15,4 16,2 20,9 17,2 6 3 16 8 SSW 1016,1 0 0,2
29.06.2020 07:00:00 15,5 15,0 15,7 20,9 17,2 6 3 14 8 SSW 1015,9 0 0,0
29.06.2020 06:00:00 15,4 14,9 15,4 21,0 17,2 4 2 14 7 SSW 1015,7 0 0,2
29.06.2020 05:00:00 15,4 14,8 15,5 21,1 17,2 3 2 8 4 SSW 1016,0 0 0,0
29.06.2020 04:00:00 15,2 14,7 15,5 21,2 17,2 2 1 6 3 S 1016,5 0 0,0
29.06.2020 03:00:00 15,2 14,7 15,4 21,3 17,2 0 0 8 4 N 1017,0 0 0,0
29.06.2020 02:00:00 15,1 14,6 15,4 21,4 17,2 3 1 8 4 S 1017,5 0 0,0
29.06.2020 01:00:00 15,1 14,9 14,8 21,4 17,2 0 0 4 2 N 1017,9 0 0,4
29.06.2020 00:00:00 15,1 14,6 15,3 21,5 17,2 2 1 7 4 S 1018,3 0 0,0
28.06.2020 23:00:00 15,1 14,6 15,1 21,6 17,1 2 1 14 7 S 1018,4 0 1,0
28.06.2020 22:00:00 15,2 14,9 15,5 21,7 17,1 3 2 9 5 SSE 1018,4 0 1,6
28.06.2020 21:00:00 15,5 15,0 15,7 21,7 17,2 0 0 4 2 N 1018,6 0 2,4
28.06.2020 20:00:00 15,5 14,7 15,5 21,8 17,1 2 1 14 7 N 1018,9 0 4,9
28.06.2020 19:00:00 16,2 14,6 15,8 21,7 17,1 4 2 30 16 NNW 1018,2 0 3,0
28.06.2020 18:00:00 21,5 12,1 19,2 21,6 17,1 12 6 23 13 NNW 1016,3 0 0,0
28.06.2020 17:00:00 23,2 13,9 24,0 21,5 17,1 9 5 27 15 NW 1015,8 20 0,0
28.06.2020 16:00:00 24,0 14,7 26,3 21,4 17,1 13 7 33 18 W 1016,1 27 0,0
28.06.2020 15:00:00 24,8 14,6 24,5 21,3 17,1 13 7 33 18 WSW 1016,0 40 0,0
28.06.2020 14:00:00 23,6 15,1 27,2 21,3 17,1 11 6 34 18 WSW 1016,9 39 0,0
28.06.2020 13:00:00 23,7 15,2 24,4 21,3 17,1 14 7 38 20 SW 1017,0 21 0,0
28.06.2020 12:00:00 22,4 15,0 24,3 21,3 17,1 11 6 30 16 SW 1017,3 25 0,0
28.06.2020 11:00:00 21,8 14,9 23,2 21,3 17,1 16 9 35 19 SW 1017,4 24 0,0
28.06.2020 10:00:00 21,6 15,7 20,7 21,3 17,0 11 6 27 15 SSW 1017,3 21 0,0
28.06.2020 09:00:00 20,2 15,8 19,6 21,3 17,0 11 6 26 14 SW 1017,7 0 0,0
28.06.2020 08:00:00 19,9 14,9 18,5 21,4 17,0 10 6 27 15 SSW 1017,3 0 0,0
28.06.2020 07:00:00 20,1 15,7 18,3 21,5 17,0 11 6 24 13 SW 1017,2 0 0,0
28.06.2020 06:00:00 20,5 16,3 18,4 21,5 17,0 10 5 24 13 SW 1016,3 0 0,0
28.06.2020 05:00:00 21,0 16,6 18,9 21,5 17,0 9 5 19 10 SSW 1015,7 0 0,0
28.06.2020 04:00:00 21,2 17,6 19,1 21,6 17,0 9 5 24 13 SSW 1015,5 0 0,0
28.06.2020 03:00:00 21,5 17,3 19,0 21,7 17,0 9 5 19 10 SSW 1015,2 0 0,0
28.06.2020 02:00:00 21,9 16,6 18,7 21,7 17,0 12 6 24 13 SSW 1015,0 0 0,0
28.06.2020 01:00:00 22,2 17,1 18,6 21,7 17,0 8 4 20 11 SSW 1014,7 0 0,0
28.06.2020 00:00:00 21,5 17,1 17,8 21,7 17,0 0 0 0 0 N 1014,4 0 0,0
27.06.2020 23:00:00 22,4 17,1 18,7 21,7 17,0 0 0 0 0 N 1013,9 0 0,0
27.06.2020 22:00:00 23,3 16,8 18,4 21,7 17,0 0 0 5 3 N 1013,7 0 0,0

tt = temperature
td = dewpoint
tt 5cm = temperature 5cm
tt -20cm = temperature -20cm
tt -100cm = temperature -100cm
ff = wind speed
fx = gusts
dd = wind direction
ppp = reduced air pressure
sd = sunshine duration
rr = precipitation

Next stations